sensor_id;sensor_type;location;lat;lon;timestamp;pressure;altitude;pressure_sealevel;temperature;humidity
56600;BME280;51832;48.152;11.530;2023-04-21T00:04:12;95099.94;;;10.60;73.24
56600;BME280;51832;48.152;11.530;2023-04-21T00:09:12;95098.84;;;10.85;72.50
56600;BME280;51832;48.152;11.530;2023-04-21T00:14:12;95088.22;;;10.91;72.68
56600;BME280;51832;48.152;11.530;2023-04-21T00:19:13;95093.81;;;10.83;72.17
56600;BME280;51832;48.152;11.530;2023-04-21T00:24:14;95083.16;;;11.01;72.32
56600;BME280;51832;48.152;11.530;2023-04-21T00:29:15;95086.88;;;10.42;73.31
56600;BME280;51832;48.152;11.530;2023-04-21T00:34:15;95086.31;;;10.63;73.20
56600;BME280;51832;48.152;11.530;2023-04-21T00:39:16;95082.94;;;10.80;72.25
56600;BME280;51832;48.152;11.530;2023-04-21T00:44:16;95073.94;;;10.76;72.60
56600;BME280;51832;48.152;11.530;2023-04-21T00:49:16;95076.81;;;11.14;71.21
56600;BME280;51832;48.152;11.530;2023-04-21T00:54:17;95066.91;;;11.04;71.56
56600;BME280;51832;48.152;11.530;2023-04-21T00:59:18;95072.63;;;11.01;72.50
56600;BME280;51832;48.152;11.530;2023-04-21T01:04:19;95040.91;;;10.96;72.08
56600;BME280;51832;48.152;11.530;2023-04-21T01:09:20;95047.78;;;10.97;72.43
56600;BME280;51832;48.152;11.530;2023-04-21T01:14:20;95052.88;;;11.16;71.92
56600;BME280;51832;48.152;11.530;2023-04-21T01:19:21;95058.91;;;11.28;70.81
56600;BME280;51832;48.152;11.530;2023-04-21T01:24:22;95064.38;;;10.98;71.95
56600;BME280;51832;48.152;11.530;2023-04-21T01:29:24;95062.84;;;11.14;71.26
56600;BME280;51832;48.152;11.530;2023-04-21T01:34:24;95051.94;;;11.22;71.41
56600;BME280;51832;48.152;11.530;2023-04-21T01:39:25;95060.91;;;11.37;71.34
56600;BME280;51832;48.152;11.530;2023-04-21T01:44:25;95061.78;;;11.26;71.62
56600;BME280;51832;48.152;11.530;2023-04-21T01:49:26;95068.75;;;11.32;70.78
56600;BME280;51832;48.152;11.530;2023-04-21T01:54:26;95070.44;;;11.38;70.88
56600;BME280;51832;48.152;11.530;2023-04-21T01:59:27;95067.66;;;11.45;70.53
56600;BME280;51832;48.152;11.530;2023-04-21T02:04:27;95053.22;;;11.48;70.53
56600;BME280;51832;48.152;11.530;2023-04-21T02:09:27;95055.28;;;11.46;70.48
56600;BME280;51832;48.152;11.530;2023-04-21T02:14:28;95071.69;;;11.36;70.76
56600;BME280;51832;48.152;11.530;2023-04-21T02:19:29;95063.47;;;11.32;70.78
56600;BME280;51832;48.152;11.530;2023-04-21T02:24:29;95048.56;;;11.38;69.99
56600;BME280;51832;48.152;11.530;2023-04-21T02:29:30;95051.69;;;11.52;70.16
56600;BME280;51832;48.152;11.530;2023-04-21T02:34:31;95040.13;;;11.53;70.54
56600;BME280;51832;48.152;11.530;2023-04-21T02:39:31;95041.88;;;11.64;70.47
56600;BME280;51832;48.152;11.530;2023-04-21T02:44:31;95037.13;;;11.61;70.37
56600;BME280;51832;48.152;11.530;2023-04-21T02:49:32;95037.81;;;11.56;70.13
56600;BME280;51832;48.152;11.530;2023-04-21T02:54:32;95030.53;;;11.47;70.87
56600;BME280;51832;48.152;11.530;2023-04-21T02:59:33;95018.34;;;11.57;71.10
56600;BME280;51832;48.152;11.530;2023-04-21T03:04:33;95023.75;;;11.51;71.28
56600;BME280;51832;48.152;11.530;2023-04-21T03:09:34;95020.66;;;11.54;70.96
56600;BME280;51832;48.152;11.530;2023-04-21T03:14:35;95030.03;;;11.33;72.25
56600;BME280;51832;48.152;11.530;2023-04-21T03:19:35;95025.84;;;11.20;72.13
56600;BME280;51832;48.152;11.530;2023-04-21T03:24:36;95030.19;;;10.86;73.31
56600;BME280;51832;48.152;11.530;2023-04-21T03:29:36;95039.56;;;11.22;72.34
56600;BME280;51832;48.152;11.530;2023-04-21T03:34:36;95035.06;;;11.06;72.51
56600;BME280;51832;48.152;11.530;2023-04-21T03:39:37;95040.81;;;11.31;71.15
56600;BME280;51832;48.152;11.530;2023-04-21T03:44:37;95035.53;;;11.31;71.14
56600;BME280;51832;48.152;11.530;2023-04-21T03:49:38;95037.44;;;11.36;71.12
56600;BME280;51832;48.152;11.530;2023-04-21T03:54:38;95025.66;;;11.38;71.65
56600;BME280;51832;48.152;11.530;2023-04-21T03:59:40;95029.06;;;11.39;71.41
56600;BME280;51832;48.152;11.530;2023-04-21T04:04:41;95020.00;;;11.47;71.17
56600;BME280;51832;48.152;11.530;2023-04-21T04:09:41;95016.34;;;11.64;69.89
56600;BME280;51832;48.152;11.530;2023-04-21T04:14:42;95036.97;;;11.39;71.45
56600;BME280;51832;48.152;11.530;2023-04-21T04:19:43;95055.06;;;11.47;70.84
56600;BME280;51832;48.152;11.530;2023-04-21T04:24:43;95047.75;;;11.37;70.81
56600;BME280;51832;48.152;11.530;2023-04-21T04:29:44;95054.16;;;11.42;71.04
56600;BME280;51832;48.152;11.530;2023-04-21T04:34:45;95055.75;;;11.43;70.85
56600;BME280;51832;48.152;11.530;2023-04-21T04:39:46;95052.31;;;11.42;71.01
56600;BME280;51832;48.152;11.530;2023-04-21T04:44:46;95049.06;;;11.52;71.15
56600;BME280;51832;48.152;11.530;2023-04-21T04:49:47;95048.41;;;11.45;71.46
56600;BME280;51832;48.152;11.530;2023-04-21T04:54:47;95050.03;;;11.62;71.57
56600;BME280;51832;48.152;11.530;2023-04-21T04:59:48;95047.97;;;11.64;71.16
56600;BME280;51832;48.152;11.530;2023-04-21T05:04:49;95057.22;;;11.67;71.52
56600;BME280;51832;48.152;11.530;2023-04-21T05:09:49;95060.91;;;11.66;70.07
56600;BME280;51832;48.152;11.530;2023-04-21T05:14:50;95074.31;;;11.48;70.69
56600;BME280;51832;48.152;11.530;2023-04-21T05:19:50;95070.06;;;11.63;71.66
56600;BME280;51832;48.152;11.530;2023-04-21T05:24:51;95072.16;;;11.61;71.56
56600;BME280;51832;48.152;11.530;2023-04-21T05:29:52;95080.91;;;11.79;71.21
56600;BME280;51832;48.152;11.530;2023-04-21T05:34:53;95076.06;;;11.87;71.60
56600;BME280;51832;48.152;11.530;2023-04-21T05:39:54;95078.84;;;11.52;70.92
56600;BME280;51832;48.152;11.530;2023-04-21T05:44:54;95071.50;;;11.83;70.65
56600;BME280;51832;48.152;11.530;2023-04-21T05:49:55;95072.47;;;11.93;68.99
56600;BME280;51832;48.152;11.530;2023-04-21T05:54:57;95072.53;;;11.82;68.63
56600;BME280;51832;48.152;11.530;2023-04-21T05:59:58;95064.31;;;11.95;68.22
56600;BME280;51832;48.152;11.530;2023-04-21T06:04:58;95065.13;;;11.95;68.03
56600;BME280;51832;48.152;11.530;2023-04-21T06:09:59;95070.59;;;12.44;66.49
56600;BME280;51832;48.152;11.530;2023-04-21T06:14:59;95070.63;;;12.82;63.65
56600;BME280;51832;48.152;11.530;2023-04-21T06:19:59;95069.06;;;13.25;63.59
56600;BME280;51832;48.152;11.530;2023-04-21T06:25:00;95056.25;;;13.39;62.99
56600;BME280;51832;48.152;11.530;2023-04-21T06:30:00;95055.91;;;13.57;61.85
56600;BME280;51832;48.152;11.530;2023-04-21T06:35:01;95050.13;;;14.24;60.41
56600;BME280;51832;48.152;11.530;2023-04-21T06:40:02;95055.28;;;14.83;57.12
56600;BME280;51832;48.152;11.530;2023-04-21T06:45:02;95042.97;;;14.19;58.33
56600;BME280;51832;48.152;11.530;2023-04-21T06:50:03;95052.25;;;15.16;57.17
56600;BME280;51832;48.152;11.530;2023-04-21T06:55:05;95046.97;;;15.32;55.45
56600;BME280;51832;48.152;11.530;2023-04-21T07:00:06;95040.31;;;15.14;56.02
56600;BME280;51832;48.152;11.530;2023-04-21T07:05:07;95040.22;;;14.88;57.08
56600;BME280;51832;48.152;11.530;2023-04-21T07:10:08;95049.88;;;15.15;56.94
56600;BME280;51832;48.152;11.530;2023-04-21T07:15:08;95035.63;;;15.46;55.38
56600;BME280;51832;48.152;11.530;2023-04-21T07:20:09;95037.03;;;14.91;57.32
56600;BME280;51832;48.152;11.530;2023-04-21T07:25:10;95034.88;;;14.83;57.74
56600;BME280;51832;48.152;11.530;2023-04-21T07:30:11;95032.88;;;15.11;56.58
56600;BME280;51832;48.152;11.530;2023-04-21T07:35:12;95032.50;;;14.82;56.52
56600;BME280;51832;48.152;11.530;2023-04-21T07:40:13;95039.09;;;14.79;57.06
56600;BME280;51832;48.152;11.530;2023-04-21T07:45:13;95043.44;;;15.06;56.37
56600;BME280;51832;48.152;11.530;2023-04-21T07:50:14;95052.69;;;15.66;54.38
56600;BME280;51832;48.152;11.530;2023-04-21T07:55:14;95045.28;;;15.98;53.39
56600;BME280;51832;48.152;11.530;2023-04-21T08:00:15;95042.38;;;16.10;51.82
56600;BME280;51832;48.152;11.530;2023-04-21T08:05:16;95051.09;;;16.41;51.67
56600;BME280;51832;48.152;11.530;2023-04-21T08:10:16;95052.94;;;16.55;51.24
56600;BME280;51832;48.152;11.530;2023-04-21T08:15:16;95043.09;;;16.61;50.67
56600;BME280;51832;48.152;11.530;2023-04-21T08:20:17;95055.63;;;16.50;51.00
56600;BME280;51832;48.152;11.530;2023-04-21T08:25:17;95056.69;;;16.29;51.17
56600;BME280;51832;48.152;11.530;2023-04-21T08:30:18;95047.59;;;16.86;49.90
56600;BME280;51832;48.152;11.530;2023-04-21T08:35:19;95049.66;;;16.99;50.08
56600;BME280;51832;48.152;11.530;2023-04-21T08:40:19;95043.56;;;17.58;48.13
56600;BME280;51832;48.152;11.530;2023-04-21T08:45:20;95045.09;;;17.15;49.33
56600;BME280;51832;48.152;11.530;2023-04-21T08:50:24;95037.84;;;17.80;47.53
56600;BME280;51832;48.152;11.530;2023-04-21T08:55:28;95038.91;;;17.84;47.50
56600;BME280;51832;48.152;11.530;2023-04-21T09:00:29;95036.13;;;17.99;48.63
56600;BME280;51832;48.152;11.530;2023-04-21T09:05:31;95033.44;;;17.60;48.55
56600;BME280;51832;48.152;11.530;2023-04-21T09:10:32;95024.28;;;18.15;47.17
56600;BME280;51832;48.152;11.530;2023-04-21T09:15:43;95027.19;;;17.85;47.60
56600;BME280;51832;48.152;11.530;2023-04-21T09:20:45;95020.06;;;18.09;48.20
56600;BME280;51832;48.152;11.530;2023-04-21T09:25:46;95023.38;;;17.96;49.31
56600;BME280;51832;48.152;11.530;2023-04-21T09:30:54;95021.25;;;17.93;49.50
56600;BME280;51832;48.152;11.530;2023-04-21T09:35:54;95020.78;;;18.77;46.78
56600;BME280;51832;48.152;11.530;2023-04-21T09:40:58;95024.72;;;18.27;48.10
56600;BME280;51832;48.152;11.530;2023-04-21T09:46:00;95021.16;;;18.37;48.25
56600;BME280;51832;48.152;11.530;2023-04-21T09:51:02;95017.75;;;18.31;47.75
56600;BME280;51832;48.152;11.530;2023-04-21T09:56:05;95019.88;;;18.00;49.07
56600;BME280;51832;48.152;11.530;2023-04-21T10:01:10;95016.28;;;18.73;48.73
56600;BME280;51832;48.152;11.530;2023-04-21T10:06:11;95021.47;;;19.31;46.27
56600;BME280;51832;48.152;11.530;2023-04-21T10:11:12;95020.16;;;19.09;46.59
56600;BME280;51832;48.152;11.530;2023-04-21T10:16:15;95011.84;;;18.05;50.14
56600;BME280;51832;48.152;11.530;2023-04-21T10:21:18;95011.03;;;19.34;46.77
56600;BME280;51832;48.152;11.530;2023-04-21T10:26:22;95006.44;;;18.73;46.57
56600;BME280;51832;48.152;11.530;2023-04-21T10:36:26;95010.50;;;19.13;46.04
56600;BME280;51832;48.152;11.530;2023-04-21T10:46:33;95006.19;;;19.17;48.63
56600;BME280;51832;48.152;11.530;2023-04-21T10:56:59;95001.63;;;18.75;52.11
56600;BME280;51832;48.152;11.530;2023-04-21T11:02:11;94993.16;;;19.35;50.29
56600;BME280;51832;48.152;11.530;2023-04-21T11:12:17;94980.84;;;19.95;49.37
56600;BME280;51832;48.152;11.530;2023-04-21T11:17:18;94971.53;;;19.36;50.99
56600;BME280;51832;48.152;11.530;2023-04-21T11:22:22;94965.53;;;19.82;50.46
56600;BME280;51832;48.152;11.530;2023-04-21T11:27:26;94977.81;;;20.15;49.52
56600;BME280;51832;48.152;11.530;2023-04-21T11:32:26;94969.88;;;20.43;48.44
56600;BME280;51832;48.152;11.530;2023-04-21T11:37:28;94970.41;;;20.86;47.09
56600;BME280;51832;48.152;11.530;2023-04-21T11:42:29;94970.28;;;20.04;50.23
56600;BME280;51832;48.152;11.530;2023-04-21T11:47:29;94961.44;;;20.22;49.60
56600;BME280;51832;48.152;11.530;2023-04-21T11:52:31;94957.44;;;19.87;49.78
56600;BME280;51832;48.152;11.530;2023-04-21T11:57:32;94962.47;;;20.53;48.95
56600;BME280;51832;48.152;11.530;2023-04-21T12:02:33;94962.03;;;20.33;48.80
56600;BME280;51832;48.152;11.530;2023-04-21T12:07:35;94958.41;;;21.24;46.74
56600;BME280;51832;48.152;11.530;2023-04-21T12:12:37;94962.19;;;20.82;47.16
56600;BME280;51832;48.152;11.530;2023-04-21T12:17:43;94959.50;;;20.82;48.22
56600;BME280;51832;48.152;11.530;2023-04-21T12:22:44;94965.91;;;20.40;48.91
56600;BME280;51832;48.152;11.530;2023-04-21T12:27:56;94960.59;;;21.22;48.27
56600;BME280;51832;48.152;11.530;2023-04-21T12:32:56;94963.59;;;21.57;47.11
56600;BME280;51832;48.152;11.530;2023-04-21T12:37:57;94953.38;;;20.82;48.67
56600;BME280;51832;48.152;11.530;2023-04-21T12:42:57;94949.50;;;21.02;47.09
56600;BME280;51832;48.152;11.530;2023-04-21T12:47:58;94939.53;;;21.43;43.06
56600;BME280;51832;48.152;11.530;2023-04-21T12:52:59;94942.81;;;23.00;39.65
56600;BME280;51832;48.152;11.530;2023-04-21T12:57:59;94943.72;;;23.61;38.07
56600;BME280;51832;48.152;11.530;2023-04-21T13:03:00;94945.00;;;23.72;35.85
56600;BME280;51832;48.152;11.530;2023-04-21T13:08:01;94944.66;;;23.48;35.25
56600;BME280;51832;48.152;11.530;2023-04-21T13:13:01;94939.69;;;23.07;35.91
56600;BME280;51832;48.152;11.530;2023-04-21T13:18:02;94931.78;;;23.01;35.71
56600;BME280;51832;48.152;11.530;2023-04-21T13:23:02;94928.22;;;23.92;33.33
56600;BME280;51832;48.152;11.530;2023-04-21T13:28:02;94926.31;;;23.93;32.98
56600;BME280;51832;48.152;11.530;2023-04-21T13:33:03;94925.41;;;24.53;31.60
56600;BME280;51832;48.152;11.530;2023-04-21T13:38:04;94910.84;;;24.54;32.23
56600;BME280;51832;48.152;11.530;2023-04-21T13:43:05;94915.53;;;24.65;31.77
56600;BME280;51832;48.152;11.530;2023-04-21T13:48:05;94910.47;;;24.72;31.71
56600;BME280;51832;48.152;11.530;2023-04-21T13:53:05;94902.75;;;25.21;31.37
56600;BME280;51832;48.152;11.530;2023-04-21T13:58:06;94894.91;;;25.78;30.40
56600;BME280;51832;48.152;11.530;2023-04-21T14:03:07;94891.41;;;24.48;34.00
56600;BME280;51832;48.152;11.530;2023-04-21T14:08:08;94894.34;;;24.64;33.86
56600;BME280;51832;48.152;11.530;2023-04-21T14:13:08;94888.28;;;25.05;33.18
56600;BME280;51832;48.152;11.530;2023-04-21T14:18:08;94881.41;;;24.95;32.87
56600;BME280;51832;48.152;11.530;2023-04-21T14:23:09;94869.41;;;25.13;32.44
56600;BME280;51832;48.152;11.530;2023-04-21T14:28:09;94859.00;;;26.32;30.30
56600;BME280;51832;48.152;11.530;2023-04-21T14:33:10;94867.09;;;25.24;32.19
56600;BME280;51832;48.152;11.530;2023-04-21T14:38:10;94857.50;;;24.94;32.17
56600;BME280;51832;48.152;11.530;2023-04-21T14:43:11;94834.00;;;25.03;31.42
56600;BME280;51832;48.152;11.530;2023-04-21T14:48:11;94841.84;;;24.87;31.92
56600;BME280;51832;48.152;11.530;2023-04-21T14:53:13;94842.94;;;25.36;31.27
56600;BME280;51832;48.152;11.530;2023-04-21T14:58:13;94828.72;;;25.48;30.66
56600;BME280;51832;48.152;11.530;2023-04-21T15:03:14;94835.91;;;26.10;29.49
56600;BME280;51832;48.152;11.530;2023-04-21T15:08:14;94847.56;;;26.02;28.26
56600;BME280;51832;48.152;11.530;2023-04-21T15:13:17;94828.56;;;27.72;25.83
56600;BME280;51832;48.152;11.530;2023-04-21T15:18:17;94834.41;;;27.34;26.68
56600;BME280;51832;48.152;11.530;2023-04-21T15:23:18;94835.38;;;26.89;26.70
56600;BME280;51832;48.152;11.530;2023-04-21T15:28:18;94832.84;;;27.73;25.85
56600;BME280;51832;48.152;11.530;2023-04-21T15:33:19;94829.88;;;28.53;25.10
56600;BME280;51832;48.152;11.530;2023-04-21T15:38:19;94818.84;;;28.46;25.25
56600;BME280;51832;48.152;11.530;2023-04-21T15:43:20;94815.88;;;28.67;25.80
56600;BME280;51832;48.152;11.530;2023-04-21T15:48:20;94827.22;;;28.88;24.90
56600;BME280;51832;48.152;11.530;2023-04-21T15:53:21;94806.34;;;29.62;23.19
56600;BME280;51832;48.152;11.530;2023-04-21T15:58:21;94805.91;;;29.41;23.53
56600;BME280;51832;48.152;11.530;2023-04-21T16:03:22;94801.28;;;31.58;20.91
56600;BME280;51832;48.152;11.530;2023-04-21T16:08:22;94802.97;;;31.66;20.58
56600;BME280;51832;48.152;11.530;2023-04-21T16:13:23;94793.34;;;34.19;18.42
56600;BME280;51832;48.152;11.530;2023-04-21T16:18:23;94795.25;;;35.29;16.73
56600;BME280;51832;48.152;11.530;2023-04-21T16:23:25;94805.56;;;37.73;14.88
56600;BME280;51832;48.152;11.530;2023-04-21T16:28:26;94796.22;;;39.44;13.64
56600;BME280;51832;48.152;11.530;2023-04-21T16:33:26;94796.00;;;39.55;12.88
56600;BME280;51832;48.152;11.530;2023-04-21T16:38:26;94796.75;;;37.58;14.15
56600;BME280;51832;48.152;11.530;2023-04-21T16:43:27;94785.13;;;34.09;17.41
56600;BME280;51832;48.152;11.530;2023-04-21T16:48:27;94791.06;;;32.18;19.30
56600;BME280;51832;48.152;11.530;2023-04-21T16:53:28;94790.97;;;30.35;21.31
56600;BME280;51832;48.152;11.530;2023-04-21T16:58:28;94796.06;;;29.94;21.38
56600;BME280;51832;48.152;11.530;2023-04-21T17:03:29;94800.50;;;29.60;21.82
56600;BME280;51832;48.152;11.530;2023-04-21T17:08:29;94794.41;;;29.28;21.92
56600;BME280;51832;48.152;11.530;2023-04-21T17:13:30;94801.34;;;28.91;22.80
56600;BME280;51832;48.152;11.530;2023-04-21T17:18:30;94800.13;;;28.88;23.13
56600;BME280;51832;48.152;11.530;2023-04-21T17:23:31;94812.38;;;28.04;24.52
56600;BME280;51832;48.152;11.530;2023-04-21T17:28:31;94802.44;;;28.08;24.79
56600;BME280;51832;48.152;11.530;2023-04-21T17:33:31;94802.56;;;27.55;25.49
56600;BME280;51832;48.152;11.530;2023-04-21T17:38:32;94799.56;;;30.14;22.65
56600;BME280;51832;48.152;11.530;2023-04-21T17:43:32;94794.44;;;31.67;20.80
56600;BME280;51832;48.152;11.530;2023-04-21T17:48:33;94810.53;;;32.64;19.85
56600;BME280;51832;48.152;11.530;2023-04-21T17:53:33;94811.03;;;30.27;22.27
56600;BME280;51832;48.152;11.530;2023-04-21T17:58:34;94814.28;;;29.52;23.74
56600;BME280;51832;48.152;11.530;2023-04-21T18:03:35;94813.09;;;28.32;25.61
56600;BME280;51832;48.152;11.530;2023-04-21T18:08:36;94824.75;;;27.61;26.93
56600;BME280;51832;48.152;11.530;2023-04-21T18:13:36;94827.88;;;26.59;28.21
56600;BME280;51832;48.152;11.530;2023-04-21T18:18:37;94830.00;;;26.29;28.99
56600;BME280;51832;48.152;11.530;2023-04-21T18:23:37;94831.94;;;25.95;29.00
56600;BME280;51832;48.152;11.530;2023-04-21T18:28:38;94845.56;;;25.66;29.71
56600;BME280;51832;48.152;11.530;2023-04-21T18:33:38;94848.78;;;25.38;30.07
56600;BME280;51832;48.152;11.530;2023-04-21T18:38:39;94854.44;;;25.25;30.51
56600;BME280;51832;48.152;11.530;2023-04-21T18:43:39;94853.19;;;24.93;31.09
56600;BME280;51832;48.152;11.530;2023-04-21T18:48:40;94854.47;;;24.95;30.90
56600;BME280;51832;48.152;11.530;2023-04-21T18:53:40;94867.69;;;24.79;31.18
56600;BME280;51832;48.152;11.530;2023-04-21T18:58:42;94883.44;;;24.60;31.83
56600;BME280;51832;48.152;11.530;2023-04-21T19:03:42;94890.97;;;24.46;32.18
56600;BME280;51832;48.152;11.530;2023-04-21T19:08:43;94891.25;;;23.89;33.50
56600;BME280;51832;48.152;11.530;2023-04-21T19:13:44;94897.41;;;23.21;35.37
56600;BME280;51832;48.152;11.530;2023-04-21T19:18:44;94905.31;;;23.43;34.96
56600;BME280;51832;48.152;11.530;2023-04-21T19:23:46;94954.91;;;22.18;37.61
56600;BME280;51832;48.152;11.530;2023-04-21T19:28:47;94982.84;;;20.36;39.73
56600;BME280;51832;48.152;11.530;2023-04-21T19:33:48;94973.19;;;18.90;40.65
56600;BME280;51832;48.152;11.530;2023-04-21T19:38:49;94984.63;;;18.14;41.50
56600;BME280;51832;48.152;11.530;2023-04-21T19:43:50;94977.72;;;18.41;40.88
56600;BME280;51832;48.152;11.530;2023-04-21T19:48:50;94985.47;;;18.38;40.89
56600;BME280;51832;48.152;11.530;2023-04-21T19:53:50;94983.22;;;18.21;41.02
56600;BME280;51832;48.152;11.530;2023-04-21T19:58:51;94983.00;;;17.84;41.56
56600;BME280;51832;48.152;11.530;2023-04-21T20:03:51;94984.44;;;18.63;39.54
56600;BME280;51832;48.152;11.530;2023-04-21T20:08:52;94972.81;;;18.77;39.52
56600;BME280;51832;48.152;11.530;2023-04-21T20:13:52;94978.53;;;18.66;39.87
56600;BME280;51832;48.152;11.530;2023-04-21T20:18:53;94977.03;;;18.55;40.18
56600;BME280;51832;48.152;11.530;2023-04-21T20:23:54;94968.97;;;19.07;39.04
56600;BME280;51832;48.152;11.530;2023-04-21T20:28:55;94970.91;;;18.54;40.40
56600;BME280;51832;48.152;11.530;2023-04-21T20:33:55;94973.84;;;18.81;40.12
56600;BME280;51832;48.152;11.530;2023-04-21T20:38:56;94952.84;;;19.17;39.47
56600;BME280;51832;48.152;11.530;2023-04-21T20:43:58;94950.53;;;19.11;39.92
56600;BME280;51832;48.152;11.530;2023-04-21T20:48:59;94941.66;;;18.97;40.33
56600;BME280;51832;48.152;11.530;2023-04-21T20:54:00;94946.53;;;18.90;40.96
56600;BME280;51832;48.152;11.530;2023-04-21T20:59:00;94948.59;;;18.98;40.83
56600;BME280;51832;48.152;11.530;2023-04-21T21:04:01;94955.75;;;19.40;40.12
56600;BME280;51832;48.152;11.530;2023-04-21T21:09:01;94956.22;;;19.42;39.97
56600;BME280;51832;48.152;11.530;2023-04-21T21:14:01;94951.69;;;19.42;40.13
56600;BME280;51832;48.152;11.530;2023-04-21T21:19:02;94947.22;;;19.19;40.78
56600;BME280;51832;48.152;11.530;2023-04-21T21:24:03;94940.50;;;19.03;41.37
56600;BME280;51832;48.152;11.530;2023-04-21T21:29:03;94939.09;;;19.10;41.50
56600;BME280;51832;48.152;11.530;2023-04-21T21:34:04;94930.28;;;19.10;41.83
56600;BME280;51832;48.152;11.530;2023-04-21T21:39:04;94929.06;;;19.21;41.46
56600;BME280;51832;48.152;11.530;2023-04-21T21:44:05;94926.03;;;19.46;41.35
56600;BME280;51832;48.152;11.530;2023-04-21T21:49:06;94919.44;;;18.83;42.74
56600;BME280;51832;48.152;11.530;2023-04-21T21:54:07;94929.63;;;18.99;42.51
56600;BME280;51832;48.152;11.530;2023-04-21T21:59:08;94922.53;;;18.71;43.19
56600;BME280;51832;48.152;11.530;2023-04-21T22:04:08;94923.53;;;18.51;43.67
56600;BME280;51832;48.152;11.530;2023-04-21T22:09:08;94930.69;;;18.79;43.27
56600;BME280;51832;48.152;11.530;2023-04-21T22:14:09;94939.25;;;18.47;43.84
56600;BME280;51832;48.152;11.530;2023-04-21T22:19:09;94943.53;;;18.72;43.26
56600;BME280;51832;48.152;11.530;2023-04-21T22:24:11;94937.19;;;18.44;43.64
56600;BME280;51832;48.152;11.530;2023-04-21T22:29:12;94928.88;;;18.46;43.90
56600;BME280;51832;48.152;11.530;2023-04-21T22:34:12;94935.81;;;18.23;44.50
56600;BME280;51832;48.152;11.530;2023-04-21T22:39:18;94938.97;;;17.96;45.89
56600;BME280;51832;48.152;11.530;2023-04-21T22:44:18;94939.28;;;17.56;46.28
56600;BME280;51832;48.152;11.530;2023-04-21T22:49:19;94939.22;;;17.66;46.22
56600;BME280;51832;48.152;11.530;2023-04-21T22:54:20;94928.31;;;17.67;45.85
56600;BME280;51832;48.152;11.530;2023-04-21T22:59:21;94939.22;;;17.66;46.78
56600;BME280;51832;48.152;11.530;2023-04-21T23:04:21;94927.09;;;17.50;47.00
56600;BME280;51832;48.152;11.530;2023-04-21T23:09:22;94935.66;;;17.41;46.51
56600;BME280;51832;48.152;11.530;2023-04-21T23:14:22;94921.94;;;17.24;47.23
56600;BME280;51832;48.152;11.530;2023-04-21T23:19:23;94928.56;;;17.27;46.81
56600;BME280;51832;48.152;11.530;2023-04-21T23:24:23;94929.19;;;17.14;46.65
56600;BME280;51832;48.152;11.530;2023-04-21T23:29:24;94935.13;;;17.39;46.01
56600;BME280;51832;48.152;11.530;2023-04-21T23:34:24;94952.00;;;17.25;46.08
56600;BME280;51832;48.152;11.530;2023-04-21T23:39:25;94932.41;;;17.50;45.32
56600;BME280;51832;48.152;11.530;2023-04-21T23:44:25;94947.53;;;17.54;45.08
56600;BME280;51832;48.152;11.530;2023-04-21T23:49:25;94953.06;;;17.68;44.75
56600;BME280;51832;48.152;11.530;2023-04-21T23:54:26;94944.00;;;17.69;44.95
56600;BME280;51832;48.152;11.530;2023-04-21T23:59:26;94943.88;;;17.45;45.13
